sensor_id;sensor_type;location;lat;lon;timestamp;P1;durP1;ratioP1;P2;durP2;ratioP2
71456;SDS011;59263;48.160;11.752;2022-07-29T00:01:04;4.63;;;1.20;;
71456;SDS011;59263;48.160;11.752;2022-07-29T00:03:29;5.17;;;1.30;;
71456;SDS011;59263;48.160;11.752;2022-07-29T00:05:54;5.40;;;1.20;;
71456;SDS011;59263;48.160;11.752;2022-07-29T00:08:20;5.93;;;1.67;;
71456;SDS011;59263;48.160;11.752;2022-07-29T00:10:45;5.73;;;1.23;;
71456;SDS011;59263;48.160;11.752;2022-07-29T00:13:11;4.28;;;1.20;;
71456;SDS011;59263;48.160;11.752;2022-07-29T00:15:36;4.63;;;1.40;;
71456;SDS011;59263;48.160;11.752;2022-07-29T00:18:02;5.83;;;1.10;;
71456;SDS011;59263;48.160;11.752;2022-07-29T00:20:28;4.28;;;1.25;;
71456;SDS011;59263;48.160;11.752;2022-07-29T00:22:53;5.47;;;1.13;;
71456;SDS011;59263;48.160;11.752;2022-07-29T00:25:19;3.90;;;1.00;;
71456;SDS011;59263;48.160;11.752;2022-07-29T00:27:44;3.92;;;1.00;;
71456;SDS011;59263;48.160;11.752;2022-07-29T00:30:11;4.23;;;1.20;;
71456;SDS011;59263;48.160;11.752;2022-07-29T00:32:36;4.35;;;1.17;;
71456;SDS011;59263;48.160;11.752;2022-07-29T00:35:02;3.73;;;1.20;;
71456;SDS011;59263;48.160;11.752;2022-07-29T00:37:46;4.72;;;1.27;;
71456;SDS011;59263;48.160;11.752;2022-07-29T00:40:11;5.43;;;1.30;;
71456;SDS011;59263;48.160;11.752;2022-07-29T00:42:47;5.43;;;1.10;;
71456;SDS011;59263;48.160;11.752;2022-07-29T00:45:14;4.55;;;1.17;;
71456;SDS011;59263;48.160;11.752;2022-07-29T00:47:40;4.72;;;1.33;;
71456;SDS011;59263;48.160;11.752;2022-07-29T00:50:05;5.20;;;1.50;;
71456;SDS011;59263;48.160;11.752;2022-07-29T00:52:33;5.25;;;1.55;;
71456;SDS011;59263;48.160;11.752;2022-07-29T00:55:00;4.55;;;1.35;;
71456;SDS011;59263;48.160;11.752;2022-07-29T00:57:27;4.68;;;1.30;;
71456;SDS011;59263;48.160;11.752;2022-07-29T00:59:52;4.40;;;1.30;;
71456;SDS011;59263;48.160;11.752;2022-07-29T01:02:17;5.33;;;1.30;;
71456;SDS011;59263;48.160;11.752;2022-07-29T01:04:42;5.07;;;1.70;;
71456;SDS011;59263;48.160;11.752;2022-07-29T01:07:08;4.67;;;1.20;;
71456;SDS011;59263;48.160;11.752;2022-07-29T01:09:33;4.73;;;1.17;;
71456;SDS011;59263;48.160;11.752;2022-07-29T01:12:00;3.38;;;1.10;;
71456;SDS011;59263;48.160;11.752;2022-07-29T01:14:26;5.72;;;1.50;;
71456;SDS011;59263;48.160;11.752;2022-07-29T01:17:00;5.10;;;1.30;;
71456;SDS011;59263;48.160;11.752;2022-07-29T01:19:42;5.00;;;1.50;;
71456;SDS011;59263;48.160;11.752;2022-07-29T01:25:05;3.50;;;1.10;;
71456;SDS011;59263;48.160;11.752;2022-07-29T01:27:51;4.38;;;1.50;;
71456;SDS011;59263;48.160;11.752;2022-07-29T01:30:28;5.22;;;1.50;;
71456;SDS011;59263;48.160;11.752;2022-07-29T01:32:56;4.82;;;1.48;;
71456;SDS011;59263;48.160;11.752;2022-07-29T01:35:26;4.57;;;1.27;;
71456;SDS011;59263;48.160;11.752;2022-07-29T01:40:51;6.15;;;1.60;;
71456;SDS011;59263;48.160;11.752;2022-07-29T01:43:20;5.82;;;1.65;;
71456;SDS011;59263;48.160;11.752;2022-07-29T01:45:53;5.47;;;1.30;;
71456;SDS011;59263;48.160;11.752;2022-07-29T01:48:31;3.40;;;1.03;;
71456;SDS011;59263;48.160;11.752;2022-07-29T01:51:20;5.03;;;1.10;;
71456;SDS011;59263;48.160;11.752;2022-07-29T01:54:06;5.22;;;1.10;;
71456;SDS011;59263;48.160;11.752;2022-07-29T01:56:35;3.90;;;1.20;;
71456;SDS011;59263;48.160;11.752;2022-07-29T01:59:05;4.15;;;1.20;;
71456;SDS011;59263;48.160;11.752;2022-07-29T02:01:33;3.83;;;1.23;;
71456;SDS011;59263;48.160;11.752;2022-07-29T02:04:01;3.08;;;0.93;;
71456;SDS011;59263;48.160;11.752;2022-07-29T02:06:28;5.20;;;1.20;;
71456;SDS011;59263;48.160;11.752;2022-07-29T02:08:57;5.47;;;1.20;;
71456;SDS011;59263;48.160;11.752;2022-07-29T02:11:24;4.18;;;1.20;;
71456;SDS011;59263;48.160;11.752;2022-07-29T02:13:50;4.53;;;1.17;;
71456;SDS011;59263;48.160;11.752;2022-07-29T02:16:19;3.47;;;1.10;;
71456;SDS011;59263;48.160;11.752;2022-07-29T02:18:46;3.72;;;1.13;;
71456;SDS011;59263;48.160;11.752;2022-07-29T02:21:15;4.27;;;1.03;;
71456;SDS011;59263;48.160;11.752;2022-07-29T02:23:45;3.92;;;1.10;;
71456;SDS011;59263;48.160;11.752;2022-07-29T02:26:12;7.32;;;1.40;;
71456;SDS011;59263;48.160;11.752;2022-07-29T02:28:39;4.78;;;1.20;;
71456;SDS011;59263;48.160;11.752;2022-07-29T02:31:06;4.57;;;1.10;;
71456;SDS011;59263;48.160;11.752;2022-07-29T02:33:32;4.40;;;1.07;;
71456;SDS011;59263;48.160;11.752;2022-07-29T02:35:58;5.57;;;1.40;;
71456;SDS011;59263;48.160;11.752;2022-07-29T02:38:24;6.47;;;1.50;;
71456;SDS011;59263;48.160;11.752;2022-07-29T02:41:12;5.07;;;1.23;;
71456;SDS011;59263;48.160;11.752;2022-07-29T02:43:40;5.20;;;1.10;;
71456;SDS011;59263;48.160;11.752;2022-07-29T02:46:08;4.15;;;1.23;;
71456;SDS011;59263;48.160;11.752;2022-07-29T02:48:43;6.65;;;1.13;;
71456;SDS011;59263;48.160;11.752;2022-07-29T02:51:24;3.53;;;1.10;;
71456;SDS011;59263;48.160;11.752;2022-07-29T02:53:54;4.55;;;1.38;;
71456;SDS011;59263;48.160;11.752;2022-07-29T02:56:23;4.55;;;1.10;;
71456;SDS011;59263;48.160;11.752;2022-07-29T02:58:57;4.40;;;1.20;;
71456;SDS011;59263;48.160;11.752;2022-07-29T03:01:25;4.03;;;1.10;;
71456;SDS011;59263;48.160;11.752;2022-07-29T03:03:55;4.80;;;1.52;;
71456;SDS011;59263;48.160;11.752;2022-07-29T03:06:22;3.95;;;1.20;;
71456;SDS011;59263;48.160;11.752;2022-07-29T03:08:50;5.43;;;1.20;;
71456;SDS011;59263;48.160;11.752;2022-07-29T03:11:16;3.72;;;1.00;;
71456;SDS011;59263;48.160;11.752;2022-07-29T03:13:42;4.40;;;1.20;;
71456;SDS011;59263;48.160;11.752;2022-07-29T03:16:08;4.45;;;1.10;;
71456;SDS011;59263;48.160;11.752;2022-07-29T03:18:35;5.72;;;1.50;;
71456;SDS011;59263;48.160;11.752;2022-07-29T03:21:01;5.30;;;1.40;;
71456;SDS011;59263;48.160;11.752;2022-07-29T03:23:28;5.35;;;1.10;;
71456;SDS011;59263;48.160;11.752;2022-07-29T03:25:54;4.53;;;1.30;;
71456;SDS011;59263;48.160;11.752;2022-07-29T03:28:20;4.35;;;1.10;;
71456;SDS011;59263;48.160;11.752;2022-07-29T03:30:45;4.00;;;1.10;;
71456;SDS011;59263;48.160;11.752;2022-07-29T03:33:11;3.83;;;1.20;;
71456;SDS011;59263;48.160;11.752;2022-07-29T03:35:37;6.43;;;1.42;;
71456;SDS011;59263;48.160;11.752;2022-07-29T03:38:02;4.47;;;1.40;;
71456;SDS011;59263;48.160;11.752;2022-07-29T03:40:31;5.50;;;1.23;;
71456;SDS011;59263;48.160;11.752;2022-07-29T03:43:09;4.70;;;1.30;;
71456;SDS011;59263;48.160;11.752;2022-07-29T03:45:36;5.55;;;1.45;;
71456;SDS011;59263;48.160;11.752;2022-07-29T03:48:07;4.95;;;1.38;;
71456;SDS011;59263;48.160;11.752;2022-07-29T03:50:34;4.87;;;1.47;;
71456;SDS011;59263;48.160;11.752;2022-07-29T03:53:00;4.45;;;1.33;;
71456;SDS011;59263;48.160;11.752;2022-07-29T03:55:26;5.40;;;1.27;;
71456;SDS011;59263;48.160;11.752;2022-07-29T03:57:54;5.10;;;1.53;;
71456;SDS011;59263;48.160;11.752;2022-07-29T04:00:21;6.70;;;1.30;;
71456;SDS011;59263;48.160;11.752;2022-07-29T04:02:48;5.40;;;1.50;;
71456;SDS011;59263;48.160;11.752;2022-07-29T04:05:14;6.57;;;1.50;;
71456;SDS011;59263;48.160;11.752;2022-07-29T04:07:43;5.95;;;1.63;;
71456;SDS011;59263;48.160;11.752;2022-07-29T04:10:12;5.95;;;1.50;;
71456;SDS011;59263;48.160;11.752;2022-07-29T04:12:37;4.87;;;1.37;;
71456;SDS011;59263;48.160;11.752;2022-07-29T04:15:03;5.97;;;1.70;;
71456;SDS011;59263;48.160;11.752;2022-07-29T04:17:29;4.75;;;1.50;;
71456;SDS011;59263;48.160;11.752;2022-07-29T04:19:55;5.50;;;1.70;;
71456;SDS011;59263;48.160;11.752;2022-07-29T04:22:20;5.47;;;1.50;;
71456;SDS011;59263;48.160;11.752;2022-07-29T04:24:45;6.07;;;1.40;;
71456;SDS011;59263;48.160;11.752;2022-07-29T04:27:11;4.50;;;1.40;;
71456;SDS011;59263;48.160;11.752;2022-07-29T04:29:36;5.10;;;1.45;;
71456;SDS011;59263;48.160;11.752;2022-07-29T04:32:01;6.20;;;1.50;;
71456;SDS011;59263;48.160;11.752;2022-07-29T04:34:26;6.03;;;1.77;;
71456;SDS011;59263;48.160;11.752;2022-07-29T04:36:52;4.73;;;1.50;;
71456;SDS011;59263;48.160;11.752;2022-07-29T04:39:17;5.70;;;1.77;;
71456;SDS011;59263;48.160;11.752;2022-07-29T04:41:43;6.30;;;1.60;;
71456;SDS011;59263;48.160;11.752;2022-07-29T04:44:09;5.60;;;1.77;;
71456;SDS011;59263;48.160;11.752;2022-07-29T04:46:34;5.37;;;1.70;;
71456;SDS011;59263;48.160;11.752;2022-07-29T04:49:00;5.72;;;1.63;;
71456;SDS011;59263;48.160;11.752;2022-07-29T04:51:26;7.43;;;1.42;;
71456;SDS011;59263;48.160;11.752;2022-07-29T04:53:52;7.30;;;1.80;;
71456;SDS011;59263;48.160;11.752;2022-07-29T04:56:17;6.00;;;1.67;;
71456;SDS011;59263;48.160;11.752;2022-07-29T04:58:42;6.00;;;1.90;;
71456;SDS011;59263;48.160;11.752;2022-07-29T05:01:08;5.17;;;1.53;;
71456;SDS011;59263;48.160;11.752;2022-07-29T05:03:33;5.80;;;1.40;;
71456;SDS011;59263;48.160;11.752;2022-07-29T05:05:58;5.72;;;1.80;;
71456;SDS011;59263;48.160;11.752;2022-07-29T05:08:24;5.97;;;1.77;;
71456;SDS011;59263;48.160;11.752;2022-07-29T05:10:49;5.63;;;1.70;;
71456;SDS011;59263;48.160;11.752;2022-07-29T05:13:14;7.77;;;1.83;;
71456;SDS011;59263;48.160;11.752;2022-07-29T05:15:41;5.57;;;1.63;;
71456;SDS011;59263;48.160;11.752;2022-07-29T05:18:06;6.80;;;1.80;;
71456;SDS011;59263;48.160;11.752;2022-07-29T05:20:31;7.20;;;1.53;;
71456;SDS011;59263;48.160;11.752;2022-07-29T05:23:00;6.63;;;1.60;;
71456;SDS011;59263;48.160;11.752;2022-07-29T05:25:27;7.63;;;1.77;;
71456;SDS011;59263;48.160;11.752;2022-07-29T05:27:53;5.20;;;1.60;;
71456;SDS011;59263;48.160;11.752;2022-07-29T05:30:18;6.78;;;1.67;;
71456;SDS011;59263;48.160;11.752;2022-07-29T05:32:44;5.00;;;1.40;;
71456;SDS011;59263;48.160;11.752;2022-07-29T05:35:09;5.77;;;1.80;;
71456;SDS011;59263;48.160;11.752;2022-07-29T05:37:35;6.93;;;1.52;;
71456;SDS011;59263;48.160;11.752;2022-07-29T05:40:01;6.60;;;1.60;;
71456;SDS011;59263;48.160;11.752;2022-07-29T05:42:26;6.03;;;1.60;;
71456;SDS011;59263;48.160;11.752;2022-07-29T05:44:52;6.63;;;1.60;;
71456;SDS011;59263;48.160;11.752;2022-07-29T05:47:17;6.97;;;1.57;;
71456;SDS011;59263;48.160;11.752;2022-07-29T05:49:43;5.15;;;1.63;;
71456;SDS011;59263;48.160;11.752;2022-07-29T05:52:08;4.63;;;1.50;;
71456;SDS011;59263;48.160;11.752;2022-07-29T05:54:34;4.67;;;1.40;;
71456;SDS011;59263;48.160;11.752;2022-07-29T05:57:00;5.00;;;1.60;;
71456;SDS011;59263;48.160;11.752;2022-07-29T05:59:26;7.37;;;1.73;;
71456;SDS011;59263;48.160;11.752;2022-07-29T06:01:51;6.18;;;1.60;;
71456;SDS011;59263;48.160;11.752;2022-07-29T06:04:16;7.53;;;1.50;;
71456;SDS011;59263;48.160;11.752;2022-07-29T06:06:42;4.77;;;1.40;;
71456;SDS011;59263;48.160;11.752;2022-07-29T06:09:07;6.20;;;1.60;;
71456;SDS011;59263;48.160;11.752;2022-07-29T06:11:32;5.03;;;1.60;;
71456;SDS011;59263;48.160;11.752;2022-07-29T06:13:58;7.33;;;1.83;;
71456;SDS011;59263;48.160;11.752;2022-07-29T06:16:23;5.63;;;1.90;;
71456;SDS011;59263;48.160;11.752;2022-07-29T06:18:48;5.23;;;1.60;;
71456;SDS011;59263;48.160;11.752;2022-07-29T06:21:14;6.35;;;1.67;;
71456;SDS011;59263;48.160;11.752;2022-07-29T06:23:39;5.17;;;1.53;;
71456;SDS011;59263;48.160;11.752;2022-07-29T06:26:05;5.87;;;1.73;;
71456;SDS011;59263;48.160;11.752;2022-07-29T06:28:31;5.80;;;1.70;;
71456;SDS011;59263;48.160;11.752;2022-07-29T06:30:57;5.10;;;1.77;;
71456;SDS011;59263;48.160;11.752;2022-07-29T06:33:23;5.20;;;1.70;;
71456;SDS011;59263;48.160;11.752;2022-07-29T06:35:48;7.77;;;1.60;;
71456;SDS011;59263;48.160;11.752;2022-07-29T06:38:14;5.35;;;1.70;;
71456;SDS011;59263;48.160;11.752;2022-07-29T06:40:40;6.13;;;1.90;;
71456;SDS011;59263;48.160;11.752;2022-07-29T06:43:25;7.03;;;1.55;;
71456;SDS011;59263;48.160;11.752;2022-07-29T06:45:52;5.07;;;1.52;;
71456;SDS011;59263;48.160;11.752;2022-07-29T06:48:17;5.73;;;1.60;;
71456;SDS011;59263;48.160;11.752;2022-07-29T06:50:42;5.45;;;1.58;;
71456;SDS011;59263;48.160;11.752;2022-07-29T06:53:08;5.20;;;1.55;;
71456;SDS011;59263;48.160;11.752;2022-07-29T06:55:33;6.37;;;1.77;;
71456;SDS011;59263;48.160;11.752;2022-07-29T06:57:59;5.40;;;1.50;;
71456;SDS011;59263;48.160;11.752;2022-07-29T07:00:24;5.07;;;1.40;;
71456;SDS011;59263;48.160;11.752;2022-07-29T07:02:49;5.43;;;1.80;;
71456;SDS011;59263;48.160;11.752;2022-07-29T07:05:15;5.88;;;1.85;;
71456;SDS011;59263;48.160;11.752;2022-07-29T07:07:40;4.83;;;1.73;;
71456;SDS011;59263;48.160;11.752;2022-07-29T07:10:05;5.10;;;1.60;;
71456;SDS011;59263;48.160;11.752;2022-07-29T07:12:31;5.20;;;1.60;;
71456;SDS011;59263;48.160;11.752;2022-07-29T07:14:56;6.07;;;1.60;;
71456;SDS011;59263;48.160;11.752;2022-07-29T07:17:21;4.40;;;1.27;;
71456;SDS011;59263;48.160;11.752;2022-07-29T07:19:47;5.57;;;1.40;;
71456;SDS011;59263;48.160;11.752;2022-07-29T07:22:12;6.77;;;1.77;;
71456;SDS011;59263;48.160;11.752;2022-07-29T07:24:37;6.17;;;1.50;;
71456;SDS011;59263;48.160;11.752;2022-07-29T07:27:03;4.70;;;1.47;;
71456;SDS011;59263;48.160;11.752;2022-07-29T07:29:28;5.07;;;1.40;;
71456;SDS011;59263;48.160;11.752;2022-07-29T07:31:53;6.37;;;1.70;;
71456;SDS011;59263;48.160;11.752;2022-07-29T07:34:20;5.35;;;1.50;;
71456;SDS011;59263;48.160;11.752;2022-07-29T07:36:45;6.93;;;1.47;;
71456;SDS011;59263;48.160;11.752;2022-07-29T07:39:10;6.57;;;1.80;;
71456;SDS011;59263;48.160;11.752;2022-07-29T07:41:35;5.57;;;1.70;;
71456;SDS011;59263;48.160;11.752;2022-07-29T07:44:01;7.57;;;1.70;;
71456;SDS011;59263;48.160;11.752;2022-07-29T07:46:26;6.60;;;1.70;;
71456;SDS011;59263;48.160;11.752;2022-07-29T07:48:51;5.13;;;1.60;;
71456;SDS011;59263;48.160;11.752;2022-07-29T07:51:17;4.68;;;1.40;;
71456;SDS011;59263;48.160;11.752;2022-07-29T07:53:42;4.80;;;1.50;;
71456;SDS011;59263;48.160;11.752;2022-07-29T07:56:09;5.90;;;1.63;;
71456;SDS011;59263;48.160;11.752;2022-07-29T07:58:35;5.47;;;1.70;;
71456;SDS011;59263;48.160;11.752;2022-07-29T08:01:01;9.70;;;1.90;;
71456;SDS011;59263;48.160;11.752;2022-07-29T08:03:26;9.07;;;2.03;;
71456;SDS011;59263;48.160;11.752;2022-07-29T08:05:52;5.93;;;1.60;;
71456;SDS011;59263;48.160;11.752;2022-07-29T08:08:19;5.80;;;1.70;;
71456;SDS011;59263;48.160;11.752;2022-07-29T08:10:45;11.48;;;1.85;;
71456;SDS011;59263;48.160;11.752;2022-07-29T08:13:21;8.13;;;1.63;;
71456;SDS011;59263;48.160;11.752;2022-07-29T08:15:48;6.22;;;1.92;;
71456;SDS011;59263;48.160;11.752;2022-07-29T08:18:22;5.37;;;1.37;;
71456;SDS011;59263;48.160;11.752;2022-07-29T08:20:55;5.78;;;1.60;;
71456;SDS011;59263;48.160;11.752;2022-07-29T08:23:20;6.05;;;1.63;;
71456;SDS011;59263;48.160;11.752;2022-07-29T08:25:47;4.88;;;1.30;;
71456;SDS011;59263;48.160;11.752;2022-07-29T08:28:13;6.00;;;1.60;;
71456;SDS011;59263;48.160;11.752;2022-07-29T08:30:39;7.88;;;1.55;;
71456;SDS011;59263;48.160;11.752;2022-07-29T08:33:04;5.27;;;1.50;;
71456;SDS011;59263;48.160;11.752;2022-07-29T08:35:29;5.07;;;1.30;;
71456;SDS011;59263;48.160;11.752;2022-07-29T08:37:55;7.00;;;2.35;;
71456;SDS011;59263;48.160;11.752;2022-07-29T08:40:21;6.07;;;1.50;;
71456;SDS011;59263;48.160;11.752;2022-07-29T08:42:48;5.53;;;1.50;;
71456;SDS011;59263;48.160;11.752;2022-07-29T08:45:14;6.15;;;1.58;;
71456;SDS011;59263;48.160;11.752;2022-07-29T08:47:40;6.97;;;1.50;;
71456;SDS011;59263;48.160;11.752;2022-07-29T08:50:06;7.60;;;1.57;;
71456;SDS011;59263;48.160;11.752;2022-07-29T08:52:34;5.13;;;1.58;;
71456;SDS011;59263;48.160;11.752;2022-07-29T08:55:01;8.45;;;2.10;;
71456;SDS011;59263;48.160;11.752;2022-07-29T08:57:27;5.30;;;1.50;;
71456;SDS011;59263;48.160;11.752;2022-07-29T08:59:53;5.97;;;1.60;;
71456;SDS011;59263;48.160;11.752;2022-07-29T09:02:20;6.35;;;1.80;;
71456;SDS011;59263;48.160;11.752;2022-07-29T09:04:47;7.60;;;1.70;;
71456;SDS011;59263;48.160;11.752;2022-07-29T09:07:17;5.15;;;1.83;;
71456;SDS011;59263;48.160;11.752;2022-07-29T09:09:43;6.60;;;2.17;;
71456;SDS011;59263;48.160;11.752;2022-07-29T09:12:12;6.10;;;1.80;;
71456;SDS011;59263;48.160;11.752;2022-07-29T09:14:38;6.85;;;1.95;;
71456;SDS011;59263;48.160;11.752;2022-07-29T09:17:03;6.78;;;2.20;;
71456;SDS011;59263;48.160;11.752;2022-07-29T09:19:30;6.00;;;2.23;;
71456;SDS011;59263;48.160;11.752;2022-07-29T09:21:59;5.57;;;1.80;;
71456;SDS011;59263;48.160;11.752;2022-07-29T09:24:27;6.40;;;2.28;;
71456;SDS011;59263;48.160;11.752;2022-07-29T09:27:04;6.65;;;2.10;;
71456;SDS011;59263;48.160;11.752;2022-07-29T09:29:33;7.30;;;2.47;;
71456;SDS011;59263;48.160;11.752;2022-07-29T09:31:58;6.77;;;2.53;;
71456;SDS011;59263;48.160;11.752;2022-07-29T09:34:25;6.10;;;2.20;;
71456;SDS011;59263;48.160;11.752;2022-07-29T09:36:53;8.48;;;2.75;;
71456;SDS011;59263;48.160;11.752;2022-07-29T09:39:27;6.17;;;2.10;;
71456;SDS011;59263;48.160;11.752;2022-07-29T09:41:56;6.00;;;2.03;;
71456;SDS011;59263;48.160;11.752;2022-07-29T09:44:23;6.22;;;2.05;;
71456;SDS011;59263;48.160;11.752;2022-07-29T09:46:56;5.97;;;2.20;;
71456;SDS011;59263;48.160;11.752;2022-07-29T09:49:24;7.70;;;2.17;;
71456;SDS011;59263;48.160;11.752;2022-07-29T09:52:03;7.20;;;2.30;;
71456;SDS011;59263;48.160;11.752;2022-07-29T09:54:33;6.82;;;2.10;;
71456;SDS011;59263;48.160;11.752;2022-07-29T09:57:02;6.63;;;2.10;;
71456;SDS011;59263;48.160;11.752;2022-07-29T09:59:29;6.40;;;2.35;;
71456;SDS011;59263;48.160;11.752;2022-07-29T10:01:55;6.60;;;2.17;;
71456;SDS011;59263;48.160;11.752;2022-07-29T10:04:21;6.90;;;2.47;;
71456;SDS011;59263;48.160;11.752;2022-07-29T10:06:57;7.47;;;2.13;;
71456;SDS011;59263;48.160;11.752;2022-07-29T10:09:22;7.50;;;2.63;;
71456;SDS011;59263;48.160;11.752;2022-07-29T10:12:04;5.95;;;2.10;;
71456;SDS011;59263;48.160;11.752;2022-07-29T10:14:34;11.18;;;2.83;;
71456;SDS011;59263;48.160;11.752;2022-07-29T10:17:00;7.53;;;2.47;;
71456;SDS011;59263;48.160;11.752;2022-07-29T10:19:27;7.70;;;2.28;;
71456;SDS011;59263;48.160;11.752;2022-07-29T10:21:54;6.13;;;2.13;;
71456;SDS011;59263;48.160;11.752;2022-07-29T10:24:21;8.60;;;2.65;;
71456;SDS011;59263;48.160;11.752;2022-07-29T10:26:47;6.38;;;2.35;;
71456;SDS011;59263;48.160;11.752;2022-07-29T10:29:13;9.13;;;2.70;;
71456;SDS011;59263;48.160;11.752;2022-07-29T10:31:51;6.60;;;2.13;;
71456;SDS011;59263;48.160;11.752;2022-07-29T10:37:09;7.10;;;2.17;;
71456;SDS011;59263;48.160;11.752;2022-07-29T10:39:48;7.05;;;2.50;;
71456;SDS011;59263;48.160;11.752;2022-07-29T10:42:49;7.22;;;2.50;;
71456;SDS011;59263;48.160;11.752;2022-07-29T10:45:17;7.10;;;2.50;;
71456;SDS011;59263;48.160;11.752;2022-07-29T10:47:42;7.40;;;2.53;;
71456;SDS011;59263;48.160;11.752;2022-07-29T10:50:08;6.80;;;2.70;;
71456;SDS011;59263;48.160;11.752;2022-07-29T11:00:41;6.38;;;2.42;;
71456;SDS011;59263;48.160;11.752;2022-07-29T11:03:07;8.07;;;2.57;;
71456;SDS011;59263;48.160;11.752;2022-07-29T11:08:21;7.53;;;2.45;;
71456;SDS011;59263;48.160;11.752;2022-07-29T11:10:48;8.93;;;2.55;;
71456;SDS011;59263;48.160;11.752;2022-07-29T11:16:08;9.10;;;2.80;;
71456;SDS011;59263;48.160;11.752;2022-07-29T11:18:34;8.40;;;2.80;;
71456;SDS011;59263;48.160;11.752;2022-07-29T11:20:59;8.60;;;2.67;;
71456;SDS011;59263;48.160;11.752;2022-07-29T11:23:31;6.57;;;2.73;;
71456;SDS011;59263;48.160;11.752;2022-07-29T11:28:35;7.82;;;2.60;;
71456;SDS011;59263;48.160;11.752;2022-07-29T11:31:06;6.85;;;2.63;;
71456;SDS011;59263;48.160;11.752;2022-07-29T11:33:34;8.47;;;2.70;;
71456;SDS011;59263;48.160;11.752;2022-07-29T11:38:36;7.88;;;2.70;;
71456;SDS011;59263;48.160;11.752;2022-07-29T11:43:45;7.03;;;2.33;;
71456;SDS011;59263;48.160;11.752;2022-07-29T11:49:20;8.30;;;2.30;;
71456;SDS011;59263;48.160;11.752;2022-07-29T11:51:51;7.47;;;2.70;;
71456;SDS011;59263;48.160;11.752;2022-07-29T11:54:23;7.25;;;2.40;;
71456;SDS011;59263;48.160;11.752;2022-07-29T11:56:51;9.15;;;2.40;;
71456;SDS011;59263;48.160;11.752;2022-07-29T11:59:17;7.30;;;2.17;;
71456;SDS011;59263;48.160;11.752;2022-07-29T12:01:53;7.20;;;2.20;;
71456;SDS011;59263;48.160;11.752;2022-07-29T12:04:19;7.15;;;2.33;;
71456;SDS011;59263;48.160;11.752;2022-07-29T12:06:49;6.87;;;2.20;;
71456;SDS011;59263;48.160;11.752;2022-07-29T12:09:15;6.55;;;2.20;;
71456;SDS011;59263;48.160;11.752;2022-07-29T12:11:42;10.88;;;2.50;;
71456;SDS011;59263;48.160;11.752;2022-07-29T12:14:07;7.77;;;2.40;;
71456;SDS011;59263;48.160;11.752;2022-07-29T12:16:36;7.00;;;2.13;;
71456;SDS011;59263;48.160;11.752;2022-07-29T12:19:02;7.70;;;2.50;;
71456;SDS011;59263;48.160;11.752;2022-07-29T12:21:44;9.05;;;2.17;;
71456;SDS011;59263;48.160;11.752;2022-07-29T12:24:13;7.10;;;1.90;;
71456;SDS011;59263;48.160;11.752;2022-07-29T12:26:52;6.20;;;2.08;;
71456;SDS011;59263;48.160;11.752;2022-07-29T12:29:19;9.80;;;2.30;;
71456;SDS011;59263;48.160;11.752;2022-07-29T12:31:45;7.72;;;2.22;;
71456;SDS011;59263;48.160;11.752;2022-07-29T12:34:15;6.57;;;2.22;;
71456;SDS011;59263;48.160;11.752;2022-07-29T12:36:41;8.75;;;2.10;;
71456;SDS011;59263;48.160;11.752;2022-07-29T12:39:08;7.67;;;2.20;;
71456;SDS011;59263;48.160;11.752;2022-07-29T12:41:34;7.00;;;2.22;;
71456;SDS011;59263;48.160;11.752;2022-07-29T12:44:00;7.13;;;2.20;;
71456;SDS011;59263;48.160;11.752;2022-07-29T12:46:25;5.47;;;2.00;;
71456;SDS011;59263;48.160;11.752;2022-07-29T12:48:52;8.25;;;2.33;;
71456;SDS011;59263;48.160;11.752;2022-07-29T12:51:27;5.43;;;2.00;;
71456;SDS011;59263;48.160;11.752;2022-07-29T12:54:11;5.97;;;2.20;;
71456;SDS011;59263;48.160;11.752;2022-07-29T12:56:39;6.80;;;2.15;;
71456;SDS011;59263;48.160;11.752;2022-07-29T13:01:40;8.10;;;2.20;;
71456;SDS011;59263;48.160;11.752;2022-07-29T13:04:06;6.77;;;2.20;;
71456;SDS011;59263;48.160;11.752;2022-07-29T13:14:00;6.53;;;2.10;;
71456;SDS011;59263;48.160;11.752;2022-07-29T13:16:26;7.18;;;2.30;;
71456;SDS011;59263;48.160;11.752;2022-07-29T13:21:29;6.00;;;2.00;;
71456;SDS011;59263;48.160;11.752;2022-07-29T13:23:55;6.93;;;2.17;;
71456;SDS011;59263;48.160;11.752;2022-07-29T13:26:20;8.27;;;2.33;;
71456;SDS011;59263;48.160;11.752;2022-07-29T13:28:45;7.73;;;2.30;;
71456;SDS011;59263;48.160;11.752;2022-07-29T13:31:11;6.27;;;2.20;;
71456;SDS011;59263;48.160;11.752;2022-07-29T13:33:36;7.53;;;2.10;;
71456;SDS011;59263;48.160;11.752;2022-07-29T13:36:01;9.13;;;2.17;;
71456;SDS011;59263;48.160;11.752;2022-07-29T13:38:26;7.67;;;2.27;;
71456;SDS011;59263;48.160;11.752;2022-07-29T13:40:52;5.90;;;2.20;;
71456;SDS011;59263;48.160;11.752;2022-07-29T13:43:17;6.00;;;1.97;;
71456;SDS011;59263;48.160;11.752;2022-07-29T13:45:43;6.60;;;2.20;;
71456;SDS011;59263;48.160;11.752;2022-07-29T13:48:08;7.23;;;2.30;;
71456;SDS011;59263;48.160;11.752;2022-07-29T13:50:33;8.43;;;2.20;;
71456;SDS011;59263;48.160;11.752;2022-07-29T13:52:59;8.43;;;2.30;;
71456;SDS011;59263;48.160;11.752;2022-07-29T13:55:24;8.53;;;2.13;;
71456;SDS011;59263;48.160;11.752;2022-07-29T13:57:49;7.77;;;1.93;;
71456;SDS011;59263;48.160;11.752;2022-07-29T14:00:15;6.00;;;1.92;;
71456;SDS011;59263;48.160;11.752;2022-07-29T14:02:41;7.20;;;2.15;;
71456;SDS011;59263;48.160;11.752;2022-07-29T14:05:07;6.63;;;2.17;;
71456;SDS011;59263;48.160;11.752;2022-07-29T14:07:33;8.15;;;2.15;;
71456;SDS011;59263;48.160;11.752;2022-07-29T14:09:58;6.80;;;2.00;;
71456;SDS011;59263;48.160;11.752;2022-07-29T14:12:23;8.23;;;2.30;;
71456;SDS011;59263;48.160;11.752;2022-07-29T14:14:49;7.03;;;2.30;;
71456;SDS011;59263;48.160;11.752;2022-07-29T14:17:15;5.85;;;1.83;;
71456;SDS011;59263;48.160;11.752;2022-07-29T14:19:40;7.83;;;2.03;;
71456;SDS011;59263;48.160;11.752;2022-07-29T14:22:06;6.43;;;2.00;;
71456;SDS011;59263;48.160;11.752;2022-07-29T14:24:32;6.45;;;1.88;;
71456;SDS011;59263;48.160;11.752;2022-07-29T14:26:58;8.23;;;2.00;;
71456;SDS011;59263;48.160;11.752;2022-07-29T14:29:23;7.22;;;1.88;;
71456;SDS011;59263;48.160;11.752;2022-07-29T14:31:49;7.50;;;1.90;;
71456;SDS011;59263;48.160;11.752;2022-07-29T14:34:14;7.90;;;2.10;;
71456;SDS011;59263;48.160;11.752;2022-07-29T14:36:40;6.43;;;2.20;;
71456;SDS011;59263;48.160;11.752;2022-07-29T14:39:06;6.65;;;2.20;;
71456;SDS011;59263;48.160;11.752;2022-07-29T14:41:31;8.40;;;1.70;;
71456;SDS011;59263;48.160;11.752;2022-07-29T14:43:57;8.93;;;2.20;;
71456;SDS011;59263;48.160;11.752;2022-07-29T14:46:25;5.50;;;2.03;;
71456;SDS011;59263;48.160;11.752;2022-07-29T14:48:51;9.50;;;2.00;;
71456;SDS011;59263;48.160;11.752;2022-07-29T14:51:16;11.17;;;2.50;;
71456;SDS011;59263;48.160;11.752;2022-07-29T14:53:42;7.20;;;1.98;;
71456;SDS011;59263;48.160;11.752;2022-07-29T14:56:08;6.43;;;2.40;;
71456;SDS011;59263;48.160;11.752;2022-07-29T14:58:33;5.95;;;2.10;;
71456;SDS011;59263;48.160;11.752;2022-07-29T15:00:58;7.27;;;2.23;;
71456;SDS011;59263;48.160;11.752;2022-07-29T15:03:24;6.50;;;2.03;;
71456;SDS011;59263;48.160;11.752;2022-07-29T15:05:49;6.80;;;1.93;;
71456;SDS011;59263;48.160;11.752;2022-07-29T15:08:14;7.63;;;1.80;;
71456;SDS011;59263;48.160;11.752;2022-07-29T15:10:40;7.37;;;2.20;;
71456;SDS011;59263;48.160;11.752;2022-07-29T15:13:05;5.77;;;1.90;;
71456;SDS011;59263;48.160;11.752;2022-07-29T15:15:31;7.07;;;2.08;;
71456;SDS011;59263;48.160;11.752;2022-07-29T15:17:56;5.57;;;1.80;;
71456;SDS011;59263;48.160;11.752;2022-07-29T15:20:21;6.73;;;1.93;;